sensor_id;sensor_type;location;lat;lon;timestamp;pressure;altitude;pressure_sealevel;temperature;humidity
15662;BME280;7931;52.274;10.470;2022-08-21T00:01:35;100687.56;;;18.18;100.00
15662;BME280;7931;52.274;10.470;2022-08-21T00:04:05;100688.75;;;18.15;100.00
15662;BME280;7931;52.274;10.470;2022-08-21T00:06:31;100691.38;;;18.07;100.00
15662;BME280;7931;52.274;10.470;2022-08-21T00:08:59;100687.16;;;18.05;100.00
15662;BME280;7931;52.274;10.470;2022-08-21T00:11:24;100681.44;;;18.08;100.00
15662;BME280;7931;52.274;10.470;2022-08-21T00:13:52;100678.38;;;18.03;100.00
15662;BME280;7931;52.274;10.470;2022-08-21T00:16:18;100678.56;;;18.01;100.00
15662;BME280;7931;52.274;10.470;2022-08-21T00:18:43;100676.03;;;18.00;100.00
15662;BME280;7931;52.274;10.470;2022-08-21T00:21:12;100679.19;;;17.95;100.00
15662;BME280;7931;52.274;10.470;2022-08-21T00:23:38;100677.59;;;17.84;100.00
15662;BME280;7931;52.274;10.470;2022-08-21T00:26:03;100670.38;;;17.85;100.00
15662;BME280;7931;52.274;10.470;2022-08-21T00:28:29;100676.91;;;17.82;100.00
15662;BME280;7931;52.274;10.470;2022-08-21T00:30:55;100677.69;;;17.75;100.00
15662;BME280;7931;52.274;10.470;2022-08-21T00:33:22;100680.03;;;17.60;100.00
15662;BME280;7931;52.274;10.470;2022-08-21T00:35:48;100677.41;;;17.50;100.00
15662;BME280;7931;52.274;10.470;2022-08-21T00:38:13;100675.44;;;17.52;100.00
15662;BME280;7931;52.274;10.470;2022-08-21T00:40:57;100674.97;;;17.39;100.00
15662;BME280;7931;52.274;10.470;2022-08-21T00:43:31;100677.03;;;17.45;100.00
15662;BME280;7931;52.274;10.470;2022-08-21T00:45:57;100670.81;;;17.44;100.00
15662;BME280;7931;52.274;10.470;2022-08-21T00:48:23;100672.13;;;17.40;100.00
15662;BME280;7931;52.274;10.470;2022-08-21T00:50:54;100669.06;;;17.17;100.00
15662;BME280;7931;52.274;10.470;2022-08-21T00:53:21;100669.38;;;16.87;100.00
15662;BME280;7931;52.274;10.470;2022-08-21T00:55:47;100668.53;;;16.86;100.00
15662;BME280;7931;52.274;10.470;2022-08-21T00:58:14;100665.41;;;16.91;100.00
15662;BME280;7931;52.274;10.470;2022-08-21T01:00:42;100668.81;;;16.93;100.00
15662;BME280;7931;52.274;10.470;2022-08-21T01:03:15;100668.47;;;16.96;100.00
15662;BME280;7931;52.274;10.470;2022-08-21T01:05:42;100664.25;;;16.93;100.00
15662;BME280;7931;52.274;10.470;2022-08-21T01:08:08;100665.94;;;16.94;100.00
15662;BME280;7931;52.274;10.470;2022-08-21T01:10:35;100658.63;;;16.87;100.00
15662;BME280;7931;52.274;10.470;2022-08-21T01:13:01;100668.53;;;16.86;100.00
15662;BME280;7931;52.274;10.470;2022-08-21T01:15:36;100669.69;;;16.84;100.00
15662;BME280;7931;52.274;10.470;2022-08-21T01:18:03;100662.38;;;16.76;100.00
15662;BME280;7931;52.274;10.470;2022-08-21T01:20:29;100663.53;;;16.74;100.00
15662;BME280;7931;52.274;10.470;2022-08-21T01:22:55;100663.53;;;16.74;100.00
15662;BME280;7931;52.274;10.470;2022-08-21T01:25:21;100659.53;;;16.68;100.00
15662;BME280;7931;52.274;10.470;2022-08-21T01:27:46;100662.09;;;16.69;100.00
15662;BME280;7931;52.274;10.470;2022-08-21T01:30:18;100668.31;;;16.70;100.00
15662;BME280;7931;52.274;10.470;2022-08-21T01:32:45;100663.41;;;16.65;100.00
15662;BME280;7931;52.274;10.470;2022-08-21T01:35:12;100671.22;;;16.59;100.00
15662;BME280;7931;52.274;10.470;2022-08-21T01:37:38;100668.13;;;16.54;100.00
15662;BME280;7931;52.274;10.470;2022-08-21T01:40:05;100664.72;;;16.52;100.00
15662;BME280;7931;52.274;10.470;2022-08-21T01:42:31;100666.06;;;16.38;100.00
15662;BME280;7931;52.274;10.470;2022-08-21T01:44:56;100658.00;;;16.38;100.00
15662;BME280;7931;52.274;10.470;2022-08-21T01:47:22;100663.09;;;16.41;100.00
15662;BME280;7931;52.274;10.470;2022-08-21T01:49:48;100663.09;;;16.41;100.00
15662;BME280;7931;52.274;10.470;2022-08-21T01:52:13;100665.78;;;16.41;100.00
15662;BME280;7931;52.274;10.470;2022-08-21T01:54:39;100658.00;;;16.38;100.00
15662;BME280;7931;52.274;10.470;2022-08-21T01:57:05;100662.88;;;16.25;100.00
15662;BME280;7931;52.274;10.470;2022-08-21T01:59:31;100669.22;;;16.24;100.00
15662;BME280;7931;52.274;10.470;2022-08-21T02:01:57;100663.72;;;16.25;100.00
15662;BME280;7931;52.274;10.470;2022-08-21T02:04:23;100668.38;;;16.23;100.00
15662;BME280;7931;52.274;10.470;2022-08-21T02:06:49;100665.03;;;16.11;100.00
15662;BME280;7931;52.274;10.470;2022-08-21T02:09:15;100665.63;;;16.05;100.00
15662;BME280;7931;52.274;10.470;2022-08-21T02:11:41;100656.47;;;15.79;100.00
15662;BME280;7931;52.274;10.470;2022-08-21T02:14:11;100663.94;;;15.85;100.00
15662;BME280;7931;52.274;10.470;2022-08-21T02:16:39;100665.75;;;15.94;100.00
15662;BME280;7931;52.274;10.470;2022-08-21T02:19:05;100661.53;;;16.01;100.00
15662;BME280;7931;52.274;10.470;2022-08-21T02:21:30;100656.44;;;15.98;100.00
15662;BME280;7931;52.274;10.470;2022-08-21T02:23:56;100655.31;;;16.01;100.00
15662;BME280;7931;52.274;10.470;2022-08-21T02:26:21;100655.88;;;15.94;100.00
15662;BME280;7931;52.274;10.470;2022-08-21T02:28:47;100648.84;;;15.84;100.00
15662;BME280;7931;52.274;10.470;2022-08-21T02:31:13;100651.34;;;15.85;100.00
15662;BME280;7931;52.274;10.470;2022-08-21T02:33:39;100652.22;;;15.86;100.00
15662;BME280;7931;52.274;10.470;2022-08-21T02:36:05;100649.09;;;15.90;100.00
15662;BME280;7931;52.274;10.470;2022-08-21T02:38:33;100649.41;;;15.87;100.00
15662;BME280;7931;52.274;10.470;2022-08-21T02:41:00;100650.25;;;15.88;100.00
15662;BME280;7931;52.274;10.470;2022-08-21T02:43:27;100653.78;;;15.79;100.00
15662;BME280;7931;52.274;10.470;2022-08-21T02:45:55;100655.78;;;15.77;100.00
15662;BME280;7931;52.274;10.470;2022-08-21T02:48:24;100648.84;;;15.74;100.00
15662;BME280;7931;52.274;10.470;2022-08-21T02:50:55;100656.31;;;15.71;100.00
15662;BME280;7931;52.274;10.470;2022-08-21T02:53:21;100656.63;;;15.67;100.00
15662;BME280;7931;52.274;10.470;2022-08-21T02:55:49;100653.09;;;15.67;100.00
15662;BME280;7931;52.274;10.470;2022-08-21T02:58:16;100655.22;;;15.63;100.00
15662;BME280;7931;52.274;10.470;2022-08-21T03:00:43;100652.94;;;15.49;100.00
15662;BME280;7931;52.274;10.470;2022-08-21T03:03:09;100651.09;;;15.40;100.00
15662;BME280;7931;52.274;10.470;2022-08-21T03:05:36;100650.84;;;15.43;100.00
15662;BME280;7931;52.274;10.470;2022-08-21T03:08:08;100638.69;;;15.49;100.00
15662;BME280;7931;52.274;10.470;2022-08-21T03:10:51;100645.16;;;15.46;100.00
15662;BME280;7931;52.274;10.470;2022-08-21T03:13:18;100640.78;;;15.35;100.00
15662;BME280;7931;52.274;10.470;2022-08-21T03:15:45;100636.69;;;15.22;100.00
15662;BME280;7931;52.274;10.470;2022-08-21T03:18:12;100640.78;;;15.06;100.00
15662;BME280;7931;52.274;10.470;2022-08-21T03:20:40;100642.34;;;15.09;100.00
15662;BME280;7931;52.274;10.470;2022-08-21T03:23:06;100638.94;;;15.07;100.00
15662;BME280;7931;52.274;10.470;2022-08-21T03:25:33;100649.25;;;15.11;100.00
15662;BME280;7931;52.274;10.470;2022-08-21T03:28:03;100641.63;;;15.16;100.00
15662;BME280;7931;52.274;10.470;2022-08-21T03:30:30;100642.88;;;14.93;100.00
15662;BME280;7931;52.274;10.470;2022-08-21T03:32:59;100641.34;;;15.00;100.00
15662;BME280;7931;52.274;10.470;2022-08-21T03:35:26;100643.59;;;15.05;100.00
15662;BME280;7931;52.274;10.470;2022-08-21T03:37:51;100653.06;;;15.09;100.00
15662;BME280;7931;52.274;10.470;2022-08-21T03:40:18;100641.47;;;15.08;100.00
15662;BME280;7931;52.274;10.470;2022-08-21T03:42:44;100644.03;;;15.00;100.00
15662;BME280;7931;52.274;10.470;2022-08-21T03:45:13;100639.66;;;14.99;100.00
15662;BME280;7931;52.274;10.470;2022-08-21T03:47:38;100651.06;;;15.01;100.00
15662;BME280;7931;52.274;10.470;2022-08-21T03:50:04;100647.69;;;14.99;100.00
15662;BME280;7931;52.274;10.470;2022-08-21T03:52:30;100647.69;;;14.89;100.00
15662;BME280;7931;52.274;10.470;2022-08-21T03:54:56;100649.22;;;14.92;100.00
15662;BME280;7931;52.274;10.470;2022-08-21T03:57:21;100650.47;;;14.88;100.00
15662;BME280;7931;52.274;10.470;2022-08-21T03:59:47;100649.78;;;14.86;100.00
15662;BME280;7931;52.274;10.470;2022-08-21T04:02:14;100649.34;;;14.81;100.00
15662;BME280;7931;52.274;10.470;2022-08-21T04:04:42;100661.19;;;14.78;100.00
15662;BME280;7931;52.274;10.470;2022-08-21T04:07:07;100651.88;;;14.82;100.00
15662;BME280;7931;52.274;10.470;2022-08-21T04:09:33;100649.44;;;14.70;100.00
15662;BME280;7931;52.274;10.470;2022-08-21T04:11:58;100650.13;;;14.62;100.00
15662;BME280;7931;52.274;10.470;2022-08-21T04:14:25;100659.03;;;14.62;100.00
15662;BME280;7931;52.274;10.470;2022-08-21T04:16:50;100661.69;;;14.62;100.00
15662;BME280;7931;52.274;10.470;2022-08-21T04:19:15;100656.91;;;14.56;100.00
15662;BME280;7931;52.274;10.470;2022-08-21T04:21:42;100662.81;;;14.60;100.00
15662;BME280;7931;52.274;10.470;2022-08-21T04:24:08;100661.69;;;14.62;100.00
15662;BME280;7931;52.274;10.470;2022-08-21T04:26:35;100666.06;;;14.63;100.00
15662;BME280;7931;52.274;10.470;2022-08-21T04:29:01;100669.88;;;14.61;100.00
15662;BME280;7931;52.274;10.470;2022-08-21T04:31:27;100671.00;;;14.58;100.00
15662;BME280;7931;52.274;10.470;2022-08-21T04:33:54;100665.63;;;14.58;100.00
15662;BME280;7931;52.274;10.470;2022-08-21T04:36:19;100671.13;;;14.57;100.00
15662;BME280;7931;52.274;10.470;2022-08-21T04:38:45;100671.97;;;14.57;100.00
15662;BME280;7931;52.274;10.470;2022-08-21T04:41:10;100667.31;;;14.59;100.00
15662;BME280;7931;52.274;10.470;2022-08-21T04:43:37;100675.75;;;14.55;100.00
15662;BME280;7931;52.274;10.470;2022-08-21T04:46:03;100671.47;;;14.43;100.00
15662;BME280;7931;52.274;10.470;2022-08-21T04:48:29;100675.03;;;14.22;100.00
15662;BME280;7931;52.274;10.470;2022-08-21T04:50:58;100677.44;;;14.25;100.00
15662;BME280;7931;52.274;10.470;2022-08-21T04:53:41;100680.69;;;14.29;100.00
15662;BME280;7931;52.274;10.470;2022-08-21T04:56:12;100680.88;;;14.37;100.00
15662;BME280;7931;52.274;10.470;2022-08-21T04:58:38;100680.50;;;14.42;100.00
15662;BME280;7931;52.274;10.470;2022-08-21T05:01:07;100679.25;;;14.46;100.00
15662;BME280;7931;52.274;10.470;2022-08-21T05:03:34;100683.50;;;14.48;100.00
15662;BME280;7931;52.274;10.470;2022-08-21T05:06:04;100678.44;;;14.55;100.00
15662;BME280;7931;52.274;10.470;2022-08-21T05:08:30;100674.66;;;14.57;100.00
15662;BME280;7931;52.274;10.470;2022-08-21T05:10:56;100674.91;;;14.54;100.00
15662;BME280;7931;52.274;10.470;2022-08-21T05:13:21;100678.03;;;14.59;100.00
15662;BME280;7931;52.274;10.470;2022-08-21T05:15:47;100678.63;;;14.63;100.00
15662;BME280;7931;52.274;10.470;2022-08-21T05:18:13;100682.56;;;14.69;100.00
15662;BME280;7931;52.274;10.470;2022-08-21T05:20:38;100676.97;;;14.72;100.00
15662;BME280;7931;52.274;10.470;2022-08-21T05:23:12;100682.75;;;14.77;100.00
15662;BME280;7931;52.274;10.470;2022-08-21T05:25:38;100688.56;;;14.82;100.00
15662;BME280;7931;52.274;10.470;2022-08-21T05:28:04;100684.88;;;14.83;100.00
15662;BME280;7931;52.274;10.470;2022-08-21T05:30:30;100682.63;;;14.88;100.00
15662;BME280;7931;52.274;10.470;2022-08-21T05:33:00;100686.03;;;14.90;100.00
15662;BME280;7931;52.274;10.470;2022-08-21T05:35:27;100688.31;;;14.95;100.00
15662;BME280;7931;52.274;10.470;2022-08-21T05:37:54;100684.66;;;14.96;100.00
15662;BME280;7931;52.274;10.470;2022-08-21T05:40:19;100690.44;;;15.01;100.00
15662;BME280;7931;52.274;10.470;2022-08-21T05:42:45;100688.59;;;15.01;100.00
15662;BME280;7931;52.274;10.470;2022-08-21T05:45:11;100683.84;;;15.14;100.00
15662;BME280;7931;52.274;10.470;2022-08-21T05:47:36;100686.63;;;15.13;100.00
15662;BME280;7931;52.274;10.470;2022-08-21T05:50:03;100691.47;;;15.29;100.00
15662;BME280;7931;52.274;10.470;2022-08-21T05:52:29;100686.13;;;15.29;100.00
15662;BME280;7931;52.274;10.470;2022-08-21T05:54:55;100686.13;;;15.48;100.00
15662;BME280;7931;52.274;10.470;2022-08-21T05:57:21;100680.47;;;15.80;100.00
15662;BME280;7931;52.274;10.470;2022-08-21T05:59:47;100692.19;;;15.79;100.00
15662;BME280;7931;52.274;10.470;2022-08-21T06:02:12;100679.78;;;15.78;100.00
15662;BME280;7931;52.274;10.470;2022-08-21T06:04:38;100675.84;;;15.73;100.00
15662;BME280;7931;52.274;10.470;2022-08-21T06:07:05;100681.31;;;15.81;100.00
15662;BME280;7931;52.274;10.470;2022-08-21T06:09:30;100691.19;;;16.00;100.00
15662;BME280;7931;52.274;10.470;2022-08-21T06:11:56;100690.31;;;16.09;100.00
15662;BME280;7931;52.274;10.470;2022-08-21T06:14:21;100695.09;;;16.25;100.00
15662;BME280;7931;52.274;10.470;2022-08-21T06:16:47;100688.47;;;16.56;100.00
15662;BME280;7931;52.274;10.470;2022-08-21T06:19:12;100681.84;;;16.51;100.00
15662;BME280;7931;52.274;10.470;2022-08-21T06:21:38;100688.22;;;16.50;100.00
15662;BME280;7931;52.274;10.470;2022-08-21T06:24:04;100687.00;;;16.72;100.00
15662;BME280;7931;52.274;10.470;2022-08-21T06:26:30;100684.72;;;16.77;100.00
15662;BME280;7931;52.274;10.470;2022-08-21T06:28:56;100689.59;;;16.63;100.00
15662;BME280;7931;52.274;10.470;2022-08-21T06:31:23;100685.56;;;16.67;100.00
15662;BME280;7931;52.274;10.470;2022-08-21T06:33:49;100686.91;;;16.63;100.00
15662;BME280;7931;52.274;10.470;2022-08-21T06:36:16;100692.94;;;16.75;100.00
15662;BME280;7931;52.274;10.470;2022-08-21T06:38:41;100681.75;;;16.80;100.00
15662;BME280;7931;52.274;10.470;2022-08-21T06:41:07;100681.91;;;16.78;100.00
15662;BME280;7931;52.274;10.470;2022-08-21T06:43:33;100675.16;;;16.92;100.00
15662;BME280;7931;52.274;10.470;2022-08-21T06:45:58;100673.59;;;17.35;100.00
15662;BME280;7931;52.274;10.470;2022-08-21T06:48:24;100676.75;;;17.48;100.00
15662;BME280;7931;52.274;10.470;2022-08-21T06:50:49;100679.91;;;17.61;100.00
15662;BME280;7931;52.274;10.470;2022-08-21T06:53:18;100673.66;;;17.79;100.00
15662;BME280;7931;52.274;10.470;2022-08-21T06:55:44;100677.44;;;17.86;100.00
15662;BME280;7931;52.274;10.470;2022-08-21T06:58:11;100678.19;;;17.96;100.00
15662;BME280;7931;52.274;10.470;2022-08-21T07:00:41;100677.97;;;18.15;100.00
15662;BME280;7931;52.274;10.470;2022-08-21T07:03:15;100672.16;;;18.02;100.00
15662;BME280;7931;52.274;10.470;2022-08-21T07:05:40;100666.78;;;18.28;100.00
15662;BME280;7931;52.274;10.470;2022-08-21T07:08:06;100669.84;;;18.33;100.00
15662;BME280;7931;52.274;10.470;2022-08-21T07:10:31;100669.13;;;18.57;100.00
15662;BME280;7931;52.274;10.470;2022-08-21T07:12:56;100666.00;;;18.44;100.00
15662;BME280;7931;52.274;10.470;2022-08-21T07:15:22;100671.59;;;18.77;100.00
15662;BME280;7931;52.274;10.470;2022-08-21T07:17:47;100663.53;;;18.93;100.00
15662;BME280;7931;52.274;10.470;2022-08-21T07:20:12;100664.94;;;19.05;100.00
15662;BME280;7931;52.274;10.470;2022-08-21T07:22:38;100667.91;;;18.94;100.00
15662;BME280;7931;52.274;10.470;2022-08-21T07:25:06;100648.94;;;19.20;100.00
15662;BME280;7931;52.274;10.470;2022-08-21T07:27:31;100654.00;;;19.31;100.00
15662;BME280;7931;52.274;10.470;2022-08-21T07:29:57;100657.22;;;19.35;100.00
15662;BME280;7931;52.274;10.470;2022-08-21T07:32:23;100650.28;;;19.32;100.00
15662;BME280;7931;52.274;10.470;2022-08-21T07:34:48;100660.94;;;19.42;100.00
15662;BME280;7931;52.274;10.470;2022-08-21T07:37:13;100652.66;;;19.43;100.00
15662;BME280;7931;52.274;10.470;2022-08-21T07:39:39;100661.34;;;19.63;100.00
15662;BME280;7931;52.274;10.470;2022-08-21T07:42:04;100652.38;;;19.79;100.00
15662;BME280;7931;52.274;10.470;2022-08-21T07:44:30;100654.53;;;20.00;100.00
15662;BME280;7931;52.274;10.470;2022-08-21T07:46:55;100646.75;;;20.05;98.48
15662;BME280;7931;52.274;10.470;2022-08-21T07:49:20;100642.59;;;20.42;99.28
15662;BME280;7931;52.274;10.470;2022-08-21T07:51:46;100638.78;;;20.75;97.30
15662;BME280;7931;52.274;10.470;2022-08-21T07:54:11;100638.03;;;20.90;93.93
15662;BME280;7931;52.274;10.470;2022-08-21T07:56:37;100634.09;;;21.23;89.70
15662;BME280;7931;52.274;10.470;2022-08-21T07:59:02;100639.59;;;21.38;86.94
15662;BME280;7931;52.274;10.470;2022-08-21T08:01:28;100646.16;;;21.44;84.08
15662;BME280;7931;52.274;10.470;2022-08-21T08:03:53;100651.03;;;21.71;81.95
15662;BME280;7931;52.274;10.470;2022-08-21T08:06:20;100649.44;;;21.77;81.18
15662;BME280;7931;52.274;10.470;2022-08-21T08:08:45;100650.13;;;21.94;78.64
15662;BME280;7931;52.274;10.470;2022-08-21T08:11:12;100652.41;;;22.05;76.38
15662;BME280;7931;52.274;10.470;2022-08-21T08:13:41;100646.31;;;22.03;75.94
15662;BME280;7931;52.274;10.470;2022-08-21T08:16:08;100648.03;;;22.19;75.18
15662;BME280;7931;52.274;10.470;2022-08-21T08:18:33;100637.84;;;22.36;74.66
15662;BME280;7931;52.274;10.470;2022-08-21T08:20:59;100645.78;;;22.52;73.96
15662;BME280;7931;52.274;10.470;2022-08-21T08:23:25;100645.13;;;22.65;74.53
15662;BME280;7931;52.274;10.470;2022-08-21T08:25:51;100644.72;;;22.82;74.23
15662;BME280;7931;52.274;10.470;2022-08-21T08:28:16;100638.56;;;22.89;76.51
15662;BME280;7931;52.274;10.470;2022-08-21T08:30:42;100628.31;;;23.05;78.17
15662;BME280;7931;52.274;10.470;2022-08-21T08:33:08;100635.34;;;23.00;80.67
15662;BME280;7931;52.274;10.470;2022-08-21T08:35:34;100629.53;;;23.24;79.02
15662;BME280;7931;52.274;10.470;2022-08-21T08:38:00;100633.09;;;23.25;78.60
15662;BME280;7931;52.274;10.470;2022-08-21T08:40:36;100619.72;;;23.23;80.29
15662;BME280;7931;52.274;10.470;2022-08-21T08:43:05;100624.31;;;23.66;78.18
15662;BME280;7931;52.274;10.470;2022-08-21T08:45:36;100620.25;;;23.55;73.14
15662;BME280;7931;52.274;10.470;2022-08-21T08:48:06;100619.88;;;23.86;71.46
15662;BME280;7931;52.274;10.470;2022-08-21T08:50:41;100634.31;;;23.87;68.94
15662;BME280;7931;52.274;10.470;2022-08-21T08:53:17;100622.00;;;23.91;70.23
15662;BME280;7931;52.274;10.470;2022-08-21T08:55:45;100628.00;;;23.79;70.16
15662;BME280;7931;52.274;10.470;2022-08-21T08:58:23;100626.03;;;23.73;70.16
15662;BME280;7931;52.274;10.470;2022-08-21T09:00:51;100629.84;;;24.07;69.15
15662;BME280;7931;52.274;10.470;2022-08-21T09:03:18;100630.94;;;24.13;69.14
15662;BME280;7931;52.274;10.470;2022-08-21T09:11:52;100623.94;;;24.31;66.08
15662;BME280;7931;52.274;10.470;2022-08-21T09:17:15;100622.44;;;24.57;60.43
15662;BME280;7931;52.274;10.470;2022-08-21T09:22:38;100623.34;;;24.77;58.93
15662;BME280;7931;52.274;10.470;2022-08-21T09:25:08;100624.31;;;25.11;58.19
15662;BME280;7931;52.274;10.470;2022-08-21T09:27:35;100624.25;;;24.98;55.27
15662;BME280;7931;52.274;10.470;2022-08-21T09:30:05;100628.34;;;24.67;54.75
15662;BME280;7931;52.274;10.470;2022-08-21T09:32:32;100626.16;;;24.49;55.31
15662;BME280;7931;52.274;10.470;2022-08-21T09:35:13;100622.66;;;24.62;54.65
15662;BME280;7931;52.274;10.470;2022-08-21T09:38:10;100623.50;;;25.10;54.25
15662;BME280;7931;52.274;10.470;2022-08-21T09:40:43;100626.69;;;24.79;54.58
15662;BME280;7931;52.274;10.470;2022-08-21T09:45:35;100617.66;;;25.20;52.20
15662;BME280;7931;52.274;10.470;2022-08-21T09:48:23;100620.81;;;25.70;52.51
15662;BME280;7931;52.274;10.470;2022-08-21T09:50:51;100626.06;;;25.65;51.62
15662;BME280;7931;52.274;10.470;2022-08-21T09:53:23;100640.75;;;25.91;50.19
15662;BME280;7931;52.274;10.470;2022-08-21T09:55:52;100628.81;;;25.98;50.53
15662;BME280;7931;52.274;10.470;2022-08-21T09:58:38;100629.78;;;26.37;48.86
15662;BME280;7931;52.274;10.470;2022-08-21T10:01:13;100629.31;;;26.60;47.95
15662;BME280;7931;52.274;10.470;2022-08-21T10:03:39;100628.66;;;26.64;47.22
15662;BME280;7931;52.274;10.470;2022-08-21T10:06:07;100630.34;;;26.59;46.98
15662;BME280;7931;52.274;10.470;2022-08-21T10:08:36;100620.84;;;26.75;47.96
15662;BME280;7931;52.274;10.470;2022-08-21T10:11:13;100616.06;;;27.02;46.58
15662;BME280;7931;52.274;10.470;2022-08-21T10:13:54;100626.56;;;27.11;46.41
15662;BME280;7931;52.274;10.470;2022-08-21T10:19:26;100622.38;;;27.02;45.83
15662;BME280;7931;52.274;10.470;2022-08-21T10:24:32;100611.75;;;27.82;44.05
15662;BME280;7931;52.274;10.470;2022-08-21T10:27:16;100604.34;;;27.33;45.75
15662;BME280;7931;52.274;10.470;2022-08-21T10:35:36;100598.59;;;27.41;44.76
15662;BME280;7931;52.274;10.470;2022-08-21T10:38:24;100601.00;;;27.56;43.03
15662;BME280;7931;52.274;10.470;2022-08-21T10:41:08;100601.78;;;27.38;42.77
15662;BME280;7931;52.274;10.470;2022-08-21T10:44:13;100597.00;;;27.33;43.18
15662;BME280;7931;52.274;10.470;2022-08-21T10:47:08;100597.31;;;27.19;43.72
15662;BME280;7931;52.274;10.470;2022-08-21T10:52:53;100596.34;;;27.00;42.78
15662;BME280;7931;52.274;10.470;2022-08-21T10:55:34;100592.66;;;27.19;43.09
15662;BME280;7931;52.274;10.470;2022-08-21T10:58:11;100596.03;;;26.76;42.75
15662;BME280;7931;52.274;10.470;2022-08-21T11:00:49;100586.06;;;27.33;42.64
15662;BME280;7931;52.274;10.470;2022-08-21T11:03:34;100587.63;;;27.48;41.54
15662;BME280;7931;52.274;10.470;2022-08-21T11:06:15;100591.06;;;27.05;42.72
15662;BME280;7931;52.274;10.470;2022-08-21T11:08:45;100591.75;;;26.94;42.99
15662;BME280;7931;52.274;10.470;2022-08-21T11:11:19;100592.59;;;26.49;43.62
15662;BME280;7931;52.274;10.470;2022-08-21T11:14:03;100583.91;;;26.65;43.88
15662;BME280;7931;52.274;10.470;2022-08-21T11:16:40;100579.94;;;27.00;42.99
15662;BME280;7931;52.274;10.470;2022-08-21T11:19:18;100574.03;;;27.09;43.22
15662;BME280;7931;52.274;10.470;2022-08-21T11:21:54;100581.56;;;26.76;43.17
15662;BME280;7931;52.274;10.470;2022-08-21T11:24:42;100577.88;;;26.95;42.91
15662;BME280;7931;52.274;10.470;2022-08-21T11:29:50;100575.00;;;27.97;40.99
15662;BME280;7931;52.274;10.470;2022-08-21T11:32:46;100573.66;;;28.24;40.24
15662;BME280;7931;52.274;10.470;2022-08-21T11:40:41;100573.38;;;27.64;41.58
15662;BME280;7931;52.274;10.470;2022-08-21T11:43:40;100579.91;;;27.38;41.64
15662;BME280;7931;52.274;10.470;2022-08-21T11:51:33;100566.41;;;27.43;41.23
15662;BME280;7931;52.274;10.470;2022-08-21T11:54:07;100562.00;;;27.92;40.14
15662;BME280;7931;52.274;10.470;2022-08-21T11:56:41;100558.50;;;28.22;39.57
15662;BME280;7931;52.274;10.470;2022-08-21T11:59:23;100567.09;;;28.25;39.46
15662;BME280;7931;52.274;10.470;2022-08-21T12:01:52;100564.00;;;28.40;36.47
15662;BME280;7931;52.274;10.470;2022-08-21T12:04:26;100557.50;;;28.53;37.05
15662;BME280;7931;52.274;10.470;2022-08-21T12:06:53;100563.47;;;28.80;36.76
15662;BME280;7931;52.274;10.470;2022-08-21T12:14:44;100563.28;;;29.23;35.06
15662;BME280;7931;52.274;10.470;2022-08-21T12:17:21;100564.09;;;29.12;34.54
15662;BME280;7931;52.274;10.470;2022-08-21T12:20:14;100564.72;;;29.49;34.64
15662;BME280;7931;52.274;10.470;2022-08-21T12:22:41;100552.03;;;29.66;34.06
15662;BME280;7931;52.274;10.470;2022-08-21T12:25:11;100549.75;;;29.75;34.39
15662;BME280;7931;52.274;10.470;2022-08-21T12:27:49;100553.94;;;29.89;33.31
15662;BME280;7931;52.274;10.470;2022-08-21T12:30:45;100555.09;;;30.29;32.59
15662;BME280;7931;52.274;10.470;2022-08-21T12:33:28;100556.03;;;30.11;32.27
15662;BME280;7931;52.274;10.470;2022-08-21T12:36:45;100554.72;;;30.25;31.93
15662;BME280;7931;52.274;10.470;2022-08-21T12:39:22;100548.28;;;29.37;33.38
15662;BME280;7931;52.274;10.470;2022-08-21T12:42:03;100552.44;;;29.16;34.83
15662;BME280;7931;52.274;10.470;2022-08-21T12:44:43;100553.75;;;29.37;32.88
15662;BME280;7931;52.274;10.470;2022-08-21T12:47:36;100549.34;;;29.36;33.12
15662;BME280;7931;52.274;10.470;2022-08-21T12:50:11;100549.72;;;29.52;32.07
15662;BME280;7931;52.274;10.470;2022-08-21T12:52:51;100540.69;;;29.63;33.32
15662;BME280;7931;52.274;10.470;2022-08-21T12:55:30;100541.75;;;29.85;31.99
15662;BME280;7931;52.274;10.470;2022-08-21T12:57:55;100542.22;;;30.17;32.00
15662;BME280;7931;52.274;10.470;2022-08-21T13:00:23;100537.06;;;30.09;31.01
15662;BME280;7931;52.274;10.470;2022-08-21T13:02:50;100550.00;;;29.85;31.64
15662;BME280;7931;52.274;10.470;2022-08-21T13:05:35;100535.88;;;30.17;30.97
15662;BME280;7931;52.274;10.470;2022-08-21T13:08:07;100541.03;;;30.13;32.13
15662;BME280;7931;52.274;10.470;2022-08-21T13:10:35;100544.66;;;30.42;31.27
15662;BME280;7931;52.274;10.470;2022-08-21T13:13:07;100536.84;;;29.64;32.67
15662;BME280;7931;52.274;10.470;2022-08-21T13:15:36;100530.13;;;29.13;32.92
15662;BME280;7931;52.274;10.470;2022-08-21T13:18:05;100533.06;;;29.65;32.83
15662;BME280;7931;52.274;10.470;2022-08-21T13:20:33;100525.41;;;29.67;33.45
15662;BME280;7931;52.274;10.470;2022-08-21T13:23:01;100530.31;;;29.88;33.03
15662;BME280;7931;52.274;10.470;2022-08-21T13:25:33;100527.22;;;29.61;33.06
15662;BME280;7931;52.274;10.470;2022-08-21T13:28:11;100530.47;;;30.34;32.14
15662;BME280;7931;52.274;10.470;2022-08-21T13:30:49;100531.41;;;30.39;29.84
15662;BME280;7931;52.274;10.470;2022-08-21T13:33:16;100538.66;;;30.45;29.07
15662;BME280;7931;52.274;10.470;2022-08-21T13:38:25;100524.06;;;30.16;31.13
15662;BME280;7931;52.274;10.470;2022-08-21T13:40:54;100524.13;;;31.19;30.32
15662;BME280;7931;52.274;10.470;2022-08-21T13:43:26;100532.41;;;30.90;29.28
15662;BME280;7931;52.274;10.470;2022-08-21T13:45:54;100536.47;;;30.88;29.02